createdAt,value
2019-01-26T00:01:01.046Z,14.23
2019-01-26T00:03:07.646Z,13.97
2019-01-26T00:05:15.706Z,13.77
2019-01-26T00:07:25.231Z,13.83
2019-01-26T00:09:35.119Z,12.30
2019-01-26T00:11:43.376Z,13.87
2019-01-26T00:13:50.410Z,8.50
2019-01-26T00:15:58.887Z,14.33
2019-01-26T00:18:05.266Z,13.83
2019-01-26T00:20:16.179Z,7.90
2019-01-26T00:22:27.956Z,13.37
2019-01-26T00:24:36.877Z,14.33
2019-01-26T00:26:46.730Z,14.27
2019-01-26T00:28:54.615Z,14.07
2019-01-26T00:31:05.608Z,9.80
2019-01-26T00:33:12.074Z,15.37
2019-01-26T00:35:22.435Z,14.10
2019-01-26T00:37:32.896Z,10.37
2019-01-26T00:39:41.259Z,11.43
2019-01-26T00:41:47.235Z,10.57
2019-01-26T00:43:54.870Z,12.40
2019-01-26T00:46:04.346Z,13.37
2019-01-26T00:48:13.014Z,13.57
2019-01-26T00:50:24.778Z,14.43
2019-01-26T00:52:32.746Z,15.17
2019-01-26T00:54:39.352Z,13.53
2019-01-26T00:56:46.331Z,13.20
2019-01-26T00:58:54.418Z,13.33
2019-01-26T01:01:00.856Z,13.67
2019-01-26T01:03:10.907Z,8.90
2019-01-26T01:05:20.657Z,14.23
2019-01-26T01:07:29.035Z,12.70
2019-01-26T01:09:42.205Z,15.40
2019-01-26T01:11:51.147Z,14.17
2019-01-26T01:14:01.459Z,13.73
2019-01-26T01:16:08.984Z,15.53
2019-01-26T01:18:17.382Z,9.87
2019-01-26T01:20:29.650Z,16.60
2019-01-26T01:22:40.279Z,15.30
2019-01-26T01:24:46.490Z,15.30
2019-01-26T01:26:54.170Z,16.30
2019-01-26T01:29:02.931Z,16.77
2019-01-26T01:31:11.281Z,15.47
2019-01-26T01:33:22.999Z,14.80
2019-01-26T01:35:33.019Z,16.57
2019-01-26T01:37:41.271Z,15.93
2019-01-26T01:39:50.955Z,15.23
2019-01-26T01:41:59.055Z,18.63
2019-01-26T01:44:07.442Z,14.73
2019-01-26T01:46:18.220Z,17.50
2019-01-26T01:48:27.351Z,19.37
2019-01-26T01:50:38.346Z,18.80
2019-01-26T01:52:48.363Z,16.93
2019-01-26T01:55:00.243Z,19.03
2019-01-26T01:57:06.894Z,11.63
2019-01-26T01:59:12.406Z,17.60
2019-01-26T02:01:19.723Z,20.13
2019-01-26T02:03:30.616Z,14.63
2019-01-26T02:05:39.787Z,13.50
2019-01-26T02:07:47.804Z,17.73
2019-01-26T02:09:57.962Z,14.10
2019-01-26T02:12:09.069Z,17.67
2019-01-26T02:14:26.627Z,18.17
2019-01-26T02:16:35.623Z,14.60
2019-01-26T02:18:45.674Z,17.17
2019-01-26T02:20:58.836Z,19.93
2019-01-26T02:23:08.535Z,20.37
2019-01-26T02:25:16.327Z,13.13
2019-01-26T02:27:26.507Z,16.30
2019-01-26T02:29:35.851Z,20.10
2019-01-26T02:31:45.706Z,11.87
2019-01-26T02:33:55.978Z,17.57
2019-01-26T02:36:03.924Z,16.83
2019-01-26T02:38:11.438Z,12.67
2019-01-26T02:40:24.793Z,19.50
2019-01-26T02:42:32.919Z,8.47
2019-01-26T02:44:40.961Z,15.20
2019-01-26T02:46:49.999Z,14.90
2019-01-26T02:48:58.373Z,17.03
2019-01-26T02:51:07.692Z,14.10
2019-01-26T02:53:18.987Z,18.33
2019-01-26T02:55:25.067Z,18.00
2019-01-26T02:57:34.954Z,19.20
2019-01-26T02:59:43.868Z,15.13
2019-01-26T03:01:52.843Z,18.10
2019-01-26T03:04:02.799Z,16.67
2019-01-26T03:06:13.351Z,18.77
2019-01-26T03:08:23.599Z,17.23
2019-01-26T03:10:33.977Z,16.00
2019-01-26T03:12:46.814Z,18.60
2019-01-26T03:14:56.941Z,16.77
2019-01-26T03:17:06.319Z,20.00
2019-01-26T03:19:16.668Z,15.83
2019-01-26T03:21:25.487Z,21.13
2019-01-26T03:23:33.853Z,22.50
2019-01-26T03:25:44.187Z,22.70
2019-01-26T03:27:51.004Z,19.80
2019-01-26T03:30:01.563Z,20.30
2019-01-26T03:32:11.046Z,22.67
2019-01-26T03:34:21.963Z,23.13
2019-01-26T03:36:31.886Z,21.23
2019-01-26T03:38:40.955Z,22.43
2019-01-26T03:40:50.755Z,23.03
2019-01-26T03:42:58.170Z,24.53
2019-01-26T03:45:09.386Z,24.23
2019-01-26T03:47:18.091Z,20.70
2019-01-26T03:49:25.913Z,23.00
2019-01-26T03:51:35.257Z,26.70
2019-01-26T03:53:44.154Z,22.70
2019-01-26T03:55:51.960Z,21.80
2019-01-26T03:58:00.778Z,23.50
2019-01-26T04:00:17.051Z,24.10
2019-01-26T04:02:28.175Z,22.47
2019-01-26T04:04:39.048Z,23.03
2019-01-26T04:06:51.003Z,23.07
2019-01-26T04:09:00.944Z,25.00
2019-01-26T04:11:09.858Z,24.43
2019-01-26T04:13:18.125Z,23.23
2019-01-26T04:15:27.215Z,23.57
2019-01-26T04:17:36.103Z,21.93
2019-01-26T04:19:44.994Z,23.07
2019-01-26T04:21:53.939Z,22.67
2019-01-26T04:24:03.381Z,23.77
2019-01-26T04:26:13.260Z,21.17
2019-01-26T04:28:22.419Z,22.30
2019-01-26T04:30:29.963Z,22.93
2019-01-26T04:32:37.902Z,23.77
2019-01-26T04:34:48.172Z,23.67
2019-01-26T04:36:57.241Z,24.00
2019-01-26T04:39:07.372Z,21.53
2019-01-26T04:41:17.260Z,21.53
2019-01-26T04:43:29.171Z,25.13
2019-01-26T04:45:40.396Z,24.53
2019-01-26T04:47:50.370Z,24.70
2019-01-26T04:50:01.674Z,23.07
2019-01-26T04:52:08.244Z,18.80
2019-01-26T04:54:19.831Z,22.53
2019-01-26T04:56:28.670Z,24.67
2019-01-26T04:58:34.404Z,21.83
2019-01-26T05:00:39.467Z,25.50
2019-01-26T05:02:45.756Z,23.97
2019-01-26T05:04:51.667Z,24.43
2019-01-26T05:06:57.007Z,24.40
2019-01-26T05:09:05.430Z,25.27
2019-01-26T05:11:19.878Z,24.03
2019-01-26T05:13:30.765Z,27.07
2019-01-26T05:15:38.795Z,25.30
2019-01-26T05:17:46.662Z,24.87
2019-01-26T05:19:54.550Z,24.33
2019-01-26T05:22:03.150Z,24.23
2019-01-26T05:24:12.463Z,25.07
2019-01-26T05:26:23.987Z,24.33
2019-01-26T05:28:32.462Z,22.03
2019-01-26T05:30:42.595Z,25.70
2019-01-26T05:32:52.554Z,20.57
2019-01-26T05:35:03.531Z,26.10
2019-01-26T05:37:12.396Z,25.97
2019-01-26T05:39:20.060Z,25.13
2019-01-26T05:41:27.574Z,24.53
2019-01-26T05:43:37.612Z,23.60
2019-01-26T05:45:46.442Z,27.67
2019-01-26T05:47:58.955Z,26.97
2019-01-26T05:50:07.299Z,24.77
2019-01-26T05:52:17.212Z,26.53
2019-01-26T05:54:25.527Z,26.30
2019-01-26T05:56:36.695Z,25.27
2019-01-26T05:58:45.181Z,24.70
2019-01-26T06:01:06.243Z,25.97
2019-01-26T06:03:14.938Z,25.97
2019-01-26T06:05:24.778Z,25.60
2019-01-26T06:07:34.994Z,25.53
2019-01-26T06:09:42.304Z,27.67
2019-01-26T06:11:52.235Z,26.27
2019-01-26T06:14:00.764Z,26.50
2019-01-26T06:16:10.283Z,26.77
2019-01-26T06:18:20.685Z,28.13
2019-01-26T06:20:33.134Z,25.00
2019-01-26T06:22:42.507Z,25.47
2019-01-26T06:24:52.751Z,25.60
2019-01-26T06:27:02.538Z,25.30
2019-01-26T06:29:09.318Z,24.47
2019-01-26T06:31:13.746Z,26.60
2019-01-26T06:33:22.586Z,25.60
2019-01-26T06:35:31.002Z,24.30
2019-01-26T06:37:38.490Z,25.07
2019-01-26T06:39:48.299Z,24.87
2019-01-26T06:41:59.258Z,24.00
2019-01-26T06:44:12.118Z,25.63
2019-01-26T06:46:21.754Z,25.60
2019-01-26T06:48:31.630Z,26.00
2019-01-26T06:50:40.730Z,27.30
2019-01-26T06:52:49.951Z,26.77
2019-01-26T06:54:56.090Z,25.40
2019-01-26T06:57:04.054Z,24.33
2019-01-26T06:59:12.620Z,26.40
2019-01-26T07:01:22.518Z,26.43
2019-01-26T07:03:35.308Z,28.03
2019-01-26T07:06:01.179Z,27.37
2019-01-26T07:08:09.450Z,25.60
2019-01-26T07:10:22.486Z,26.67
2019-01-26T07:12:31.450Z,25.60
2019-01-26T07:14:41.254Z,25.63
2019-01-26T07:16:49.624Z,24.97
2019-01-26T07:18:59.834Z,24.97
2019-01-26T07:21:07.836Z,27.37
2019-01-26T07:23:15.931Z,27.70
2019-01-26T07:25:21.291Z,30.53
2019-01-26T07:27:27.702Z,28.87
2019-01-26T07:29:36.674Z,29.73
2019-01-26T07:31:45.547Z,26.57
2019-01-26T07:33:55.343Z,26.57
2019-01-26T07:36:03.858Z,25.30
2019-01-26T07:38:15.781Z,25.77
2019-01-26T07:40:26.090Z,24.43
2019-01-26T07:42:35.870Z,21.07
2019-01-26T07:44:45.866Z,22.87
2019-01-26T07:46:55.286Z,21.07
2019-01-26T07:49:07.127Z,18.80
2019-01-26T07:51:17.099Z,17.67
2019-01-26T07:53:26.026Z,22.27
2019-01-26T07:55:34.924Z,20.87
2019-01-26T07:57:44.980Z,18.23
2019-01-26T07:59:53.098Z,18.43
2019-01-26T08:02:02.138Z,19.33
2019-01-26T08:04:13.807Z,18.40
2019-01-26T08:06:22.634Z,20.07
2019-01-26T08:08:31.255Z,19.47
2019-01-26T08:10:54.614Z,19.43
2019-01-26T08:13:05.546Z,18.77
2019-01-26T08:15:16.087Z,15.73
2019-01-26T08:17:29.215Z,15.70
2019-01-26T08:19:40.113Z,17.73
2019-01-26T08:21:53.162Z,19.87
2019-01-26T08:24:02.359Z,16.87
2019-01-26T08:26:09.196Z,15.47
2019-01-26T08:28:20.235Z,12.23
2019-01-26T08:30:29.536Z,16.97
2019-01-26T08:32:39.371Z,10.17
2019-01-26T08:34:46.315Z,14.70
2019-01-26T08:36:52.292Z,12.93
2019-01-26T08:39:04.067Z,12.03
2019-01-26T08:41:12.939Z,12.13
2019-01-26T08:43:23.522Z,19.60
2019-01-26T08:45:30.753Z,17.07
2019-01-26T08:47:40.560Z,13.87
2019-01-26T08:49:49.559Z,19.00
2019-01-26T08:51:58.673Z,18.10
2019-01-26T08:54:07.370Z,20.73
2019-01-26T08:56:15.283Z,19.27
2019-01-26T08:58:24.214Z,21.37
2019-01-26T09:00:30.927Z,19.67
2019-01-26T09:03:15.494Z,13.50
2019-01-26T09:05:25.739Z,17.77
2019-01-26T09:07:37.271Z,19.57
2019-01-26T09:09:45.750Z,22.13
2019-01-26T09:11:53.511Z,22.20
2019-01-26T09:14:01.754Z,15.57
2019-01-26T09:16:10.314Z,22.63
2019-01-26T09:18:18.231Z,25.00
2019-01-26T09:20:29.067Z,24.73
2019-01-26T09:22:41.050Z,26.13
2019-01-26T09:24:53.965Z,27.43
2019-01-26T09:27:03.308Z,23.20
2019-01-26T09:29:13.334Z,27.73
2019-01-26T09:31:22.183Z,29.30
2019-01-26T09:33:32.899Z,28.43
2019-01-26T09:35:41.835Z,27.97
2019-01-26T09:37:48.753Z,30.47
2019-01-26T09:39:55.075Z,30.37
2019-01-26T09:42:06.019Z,31.30
2019-01-26T09:44:14.927Z,29.57
2019-01-26T09:46:24.043Z,32.47
2019-01-26T09:48:31.494Z,31.57
2019-01-26T09:50:43.179Z,30.77
2019-01-26T09:52:53.915Z,31.97
2019-01-26T09:55:06.810Z,28.87
2019-01-26T09:57:14.035Z,31.93
2019-01-26T09:59:22.879Z,30.97
2019-01-26T10:01:31.014Z,29.13
2019-01-26T10:03:41.707Z,26.33
2019-01-26T10:05:50.634Z,25.97
2019-01-26T10:07:59.911Z,30.60
2019-01-26T10:10:09.702Z,25.67
2019-01-26T10:12:19.500Z,31.13
2019-01-26T10:14:27.027Z,27.63
2019-01-26T10:16:34.870Z,28.00
2019-01-26T10:18:40.555Z,28.40
2019-01-26T10:20:47.065Z,30.20
2019-01-26T10:22:51.818Z,29.27
2019-01-26T10:24:58.819Z,29.33
2019-01-26T10:27:07.979Z,29.90
2019-01-26T10:29:20.587Z,26.73
2019-01-26T10:31:31.982Z,29.33
2019-01-26T10:33:41.421Z,27.10
2019-01-26T10:36:19.006Z,28.90
2019-01-26T10:38:27.210Z,30.50
2019-01-26T10:40:45.466Z,24.30
2019-01-26T10:42:54.854Z,30.73
2019-01-26T10:45:04.314Z,26.70
2019-01-26T10:47:13.238Z,29.30
2019-01-26T10:49:20.567Z,27.87
2019-01-26T10:51:31.240Z,29.23
2019-01-26T10:53:39.738Z,30.40
2019-01-26T10:55:52.551Z,31.07
2019-01-26T10:58:01.819Z,29.00
2019-01-26T11:00:12.563Z,30.33
2019-01-26T11:02:20.991Z,28.10
2019-01-26T11:04:30.898Z,26.53
2019-01-26T11:06:40.691Z,28.90
2019-01-26T11:08:46.355Z,27.03
2019-01-26T11:10:51.513Z,29.80
2019-01-26T11:12:59.975Z,29.33
2019-01-26T11:15:10.346Z,27.27
2019-01-26T11:17:17.108Z,28.00
2019-01-26T11:19:27.354Z,31.07
2019-01-26T11:21:36.990Z,30.93
2019-01-26T11:23:46.823Z,30.63
2019-01-26T11:25:58.006Z,31.67
2019-01-26T11:28:12.327Z,30.73
2019-01-26T11:30:29.787Z,31.43
2019-01-26T11:35:11.091Z,31.03
2019-01-26T11:37:20.289Z,32.43
2019-01-26T11:39:32.898Z,30.47
2019-01-26T11:41:44.051Z,28.13
2019-01-26T11:43:54.346Z,28.87
2019-01-26T11:46:17.299Z,30.83
2019-01-26T11:48:30.035Z,32.13
2019-01-26T11:50:45.742Z,31.10
2019-01-26T11:52:55.654Z,24.47
2019-01-26T11:55:26.935Z,28.83
2019-01-26T11:57:38.650Z,29.30
2019-01-26T11:59:52.658Z,25.83
2019-01-26T12:02:11.157Z,28.93
2019-01-26T12:04:27.327Z,28.67
2019-01-26T12:06:57.047Z,26.80
2019-01-26T12:09:07.515Z,27.67
2019-01-26T12:11:15.625Z,27.30
2019-01-26T12:13:24.152Z,29.97
2019-01-26T12:15:33.427Z,29.53
2019-01-26T12:17:39.210Z,21.27
2019-01-26T12:19:48.448Z,24.47
2019-01-26T12:22:01.430Z,23.80
2019-01-26T12:24:13.790Z,22.07
2019-01-26T12:26:20.847Z,23.77
2019-01-26T12:28:29.333Z,22.43
2019-01-26T12:30:37.675Z,22.23
2019-01-26T12:32:45.099Z,23.67
2019-01-26T12:34:55.014Z,23.53
2019-01-26T12:37:07.343Z,20.63
2019-01-26T12:39:16.070Z,18.77
2019-01-26T12:41:24.250Z,18.80
2019-01-26T12:43:32.598Z,21.67
2019-01-26T12:45:38.046Z,20.50
2019-01-26T12:47:52.166Z,26.67
2019-01-26T12:50:02.379Z,22.30
2019-01-26T12:52:13.014Z,21.30
2019-01-26T12:54:24.923Z,18.50
2019-01-26T12:56:33.494Z,21.27
2019-01-26T12:58:42.563Z,23.23
2019-01-26T13:00:50.550Z,17.37
2019-01-26T13:03:01.328Z,23.10
2019-01-26T13:05:09.990Z,19.10
2019-01-26T13:07:18.978Z,20.30
2019-01-26T13:09:27.919Z,18.73
2019-01-26T13:11:33.089Z,21.20
2019-01-26T13:13:41.926Z,21.93
2019-01-26T13:15:51.419Z,20.37
2019-01-26T13:18:01.382Z,20.20
2019-01-26T13:20:08.883Z,21.37
2019-01-26T13:22:16.315Z,21.10
2019-01-26T13:24:24.810Z,22.53
2019-01-26T13:26:41.970Z,8.50
2019-01-26T13:28:56.674Z,20.30
2019-01-26T13:31:06.631Z,20.50
2019-01-26T13:33:17.158Z,19.60
2019-01-26T13:35:25.494Z,17.00
2019-01-26T13:37:33.778Z,20.27
2019-01-26T13:39:45.408Z,22.00
2019-01-26T13:41:54.310Z,20.73
2019-01-26T13:44:05.067Z,17.43
2019-01-26T13:46:14.310Z,20.80
2019-01-26T13:48:22.766Z,19.20
2019-01-26T13:50:32.699Z,19.90
2019-01-26T13:52:45.530Z,22.93
2019-01-26T13:54:55.734Z,21.10
2019-01-26T13:57:04.691Z,22.87
2019-01-26T13:59:13.543Z,19.47
2019-01-26T14:01:21.500Z,13.83
2019-01-26T14:03:37.527Z,18.87
2019-01-26T14:05:50.679Z,17.93
2019-01-26T14:07:57.746Z,18.80
2019-01-26T14:10:06.231Z,15.90
2019-01-26T14:12:12.254Z,8.10
2019-01-26T14:14:19.656Z,18.73
2019-01-26T14:16:29.446Z,13.57
2019-01-26T14:18:43.178Z,19.80
2019-01-26T14:20:50.093Z,19.57
2019-01-26T14:22:58.277Z,15.33
2019-01-26T14:25:06.214Z,14.23
2019-01-26T14:27:15.286Z,17.97
2019-01-26T14:29:22.326Z,17.23
2019-01-26T14:31:33.323Z,12.40
2019-01-26T14:33:43.312Z,16.30
2019-01-26T14:35:53.150Z,11.37
2019-01-26T14:38:03.102Z,13.83
2019-01-26T14:40:12.730Z,16.27
2019-01-26T14:42:21.550Z,15.77
2019-01-26T14:44:29.262Z,16.00
2019-01-26T14:46:40.135Z,12.43
2019-01-26T14:48:50.090Z,14.83
2019-01-26T14:50:58.966Z,11.67
2019-01-26T14:53:07.947Z,8.57
2019-01-26T14:55:17.828Z,12.30
2019-01-26T14:57:29.026Z,9.90
2019-01-26T14:59:43.159Z,13.23
2019-01-26T15:01:53.196Z,16.47
2019-01-26T15:04:02.078Z,17.13
2019-01-26T15:06:12.010Z,16.07
2019-01-26T15:08:22.895Z,15.43
2019-01-26T15:10:37.423Z,16.23
2019-01-26T15:12:45.302Z,19.27
2019-01-26T15:14:55.308Z,18.03
2019-01-26T15:17:04.238Z,17.47
2019-01-26T15:19:17.894Z,14.33
2019-01-26T15:21:26.893Z,17.30
2019-01-26T15:23:35.304Z,17.50
2019-01-26T15:25:43.579Z,18.53
2019-01-26T15:27:52.057Z,10.33
2019-01-26T15:30:03.305Z,16.37
2019-01-26T15:32:15.059Z,15.80
2019-01-26T15:34:24.710Z,16.20
2019-01-26T15:36:32.427Z,15.23
2019-01-26T15:38:43.082Z,14.40
2019-01-26T15:40:51.882Z,15.73
2019-01-26T15:43:00.564Z,10.00
2019-01-26T15:45:11.061Z,16.40
2019-01-26T15:47:22.159Z,13.33
2019-01-26T15:49:32.082Z,18.93
2019-01-26T15:51:40.972Z,19.37
2019-01-26T15:53:50.634Z,22.53
2019-01-26T15:56:00.459Z,15.97
2019-01-26T15:58:09.560Z,19.03
2019-01-26T16:00:31.751Z,21.57
2019-01-26T16:02:37.990Z,19.47
2019-01-26T16:04:43.586Z,15.10
2019-01-26T16:06:51.522Z,16.40
2019-01-26T16:09:01.767Z,20.03
2019-01-26T16:11:11.672Z,19.20
2019-01-26T16:13:18.997Z,19.47
2019-01-26T16:15:25.674Z,11.20
2019-01-26T16:17:36.010Z,21.97
2019-01-26T16:19:44.378Z,22.37
2019-01-26T16:21:54.250Z,20.23
2019-01-26T16:24:03.065Z,24.57
2019-01-26T16:26:11.502Z,20.20
2019-01-26T16:28:22.859Z,22.73
2019-01-26T16:30:33.563Z,12.83
2019-01-26T16:32:42.451Z,20.30
2019-01-26T16:34:55.164Z,23.00
2019-01-26T16:37:06.987Z,23.93
2019-01-26T16:39:17.679Z,19.50
2019-01-26T16:41:26.006Z,22.27
2019-01-26T16:43:35.555Z,21.03
2019-01-26T16:45:45.579Z,18.93
2019-01-26T16:47:52.948Z,20.53
2019-01-26T16:50:02.331Z,14.03
2019-01-26T16:52:15.356Z,21.97
2019-01-26T16:54:24.694Z,11.73
2019-01-26T16:56:35.454Z,19.67
2019-01-26T16:58:44.102Z,20.97
2019-01-26T17:00:53.066Z,17.97
2019-01-26T17:03:01.627Z,21.77
2019-01-26T17:05:12.372Z,18.53
2019-01-26T17:07:24.831Z,23.43
2019-01-26T17:09:36.815Z,16.77
2019-01-26T17:11:46.699Z,21.03
2019-01-26T17:13:58.456Z,18.50
2019-01-26T17:16:06.439Z,18.03
2019-01-26T17:18:19.373Z,15.67
2019-01-26T17:20:34.826Z,12.87
2019-01-26T17:22:39.670Z,16.93
2019-01-26T17:24:49.878Z,14.80
2019-01-26T17:26:59.831Z,22.60
2019-01-26T17:29:05.146Z,14.30
2019-01-26T17:31:14.200Z,16.57
2019-01-26T17:33:19.903Z,18.83
2019-01-26T17:35:27.899Z,18.80
2019-01-26T17:37:37.947Z,15.33
2019-01-26T17:39:50.086Z,16.27
2019-01-26T17:41:59.018Z,15.73
2019-01-26T17:44:07.954Z,17.90
2019-01-26T17:46:18.074Z,19.20
2019-01-26T17:48:25.421Z,13.90
2019-01-26T17:50:41.903Z,10.97
2019-01-26T17:52:45.435Z,19.20
2019-01-26T17:54:53.946Z,17.43
2019-01-26T17:57:02.891Z,17.30
2019-01-26T17:59:13.642Z,14.87
2019-01-26T18:01:22.504Z,10.60
2019-01-26T18:03:33.063Z,20.00
2019-01-26T18:05:43.881Z,14.77
2019-01-26T18:07:52.680Z,23.17
2019-01-26T18:10:01.991Z,16.57
2019-01-26T18:12:10.854Z,17.73
2019-01-26T18:14:18.641Z,25.00
2019-01-26T18:16:29.866Z,13.73
2019-01-26T18:18:37.694Z,21.07
2019-01-26T18:20:50.608Z,13.33
2019-01-26T18:23:00.710Z,19.80
2019-01-26T18:25:11.331Z,17.03
2019-01-26T18:27:20.661Z,20.30
2019-01-26T18:29:28.330Z,23.13
2019-01-26T18:31:36.721Z,24.17
2019-01-26T18:33:45.484Z,21.33
2019-01-26T18:35:56.328Z,9.57
2019-01-26T18:38:11.002Z,23.43
2019-01-26T18:40:25.866Z,11.13
2019-01-26T18:42:37.047Z,18.37
2019-01-26T18:44:46.439Z,15.63
2019-01-26T18:46:56.397Z,22.67
2019-01-26T18:49:05.094Z,10.80
2019-01-26T18:51:13.799Z,15.90
2019-01-26T18:53:21.244Z,24.80
2019-01-26T18:55:34.956Z,25.37
2019-01-26T18:57:43.626Z,17.60
2019-01-26T18:59:52.935Z,19.97
2019-01-26T19:02:02.286Z,17.00
2019-01-26T19:04:18.602Z,23.60
2019-01-26T19:06:28.787Z,20.37
2019-01-26T19:08:39.914Z,23.33
2019-01-26T19:10:47.613Z,23.47
2019-01-26T19:12:53.794Z,21.20
2019-01-26T19:15:00.679Z,25.47
2019-01-26T19:17:14.579Z,17.97
2019-01-26T19:19:24.426Z,25.13
2019-01-26T19:21:33.446Z,18.63
2019-01-26T19:23:42.291Z,25.97
2019-01-26T19:25:51.490Z,17.33
2019-01-26T19:28:00.430Z,16.00
2019-01-26T19:30:10.401Z,15.33
2019-01-26T19:32:20.103Z,20.23
2019-01-26T19:34:28.539Z,25.03
2019-01-26T19:36:37.783Z,26.13
2019-01-26T19:38:47.719Z,20.00
2019-01-26T19:40:55.922Z,13.27
2019-01-26T19:43:03.674Z,10.43
2019-01-26T19:45:14.890Z,13.97
2019-01-26T19:47:22.706Z,26.00
2019-01-26T19:49:33.942Z,26.80
2019-01-26T19:51:46.850Z,21.50
2019-01-26T19:53:54.902Z,24.53
2019-01-26T19:56:03.826Z,22.97
2019-01-26T19:58:12.029Z,18.07
2019-01-26T20:00:23.210Z,19.90
2019-01-26T20:02:30.862Z,14.50
2019-01-26T20:04:39.882Z,19.57
2019-01-26T20:06:49.532Z,12.33
2019-01-26T20:09:01.308Z,17.33
2019-01-26T20:11:12.634Z,14.53
2019-01-26T20:13:24.598Z,17.60
2019-01-26T20:15:34.369Z,13.93
2019-01-26T20:17:44.328Z,13.70
2019-01-26T20:19:51.708Z,18.37
2019-01-26T20:22:02.360Z,19.30
2019-01-26T20:24:12.775Z,13.20
2019-01-26T20:26:24.678Z,12.57
2019-01-26T20:28:34.732Z,15.87
2019-01-26T20:30:44.167Z,12.93
2019-01-26T20:32:52.482Z,17.27
2019-01-26T20:35:01.821Z,19.13
2019-01-26T20:37:12.107Z,16.10
2019-01-26T20:39:20.670Z,20.17
2019-01-26T20:41:33.587Z,20.80
2019-01-26T20:43:42.966Z,20.90
2019-01-26T20:45:51.883Z,16.90
2019-01-26T20:48:02.131Z,11.40
2019-01-26T20:50:11.914Z,13.77
2019-01-26T20:52:23.754Z,12.60
2019-01-26T20:54:33.731Z,18.03
2019-01-26T20:56:42.098Z,18.10
2019-01-26T20:58:52.878Z,12.37
2019-01-26T21:01:01.831Z,15.87
2019-01-26T21:03:11.334Z,19.13
2019-01-26T21:05:19.147Z,16.03
2019-01-26T21:07:27.115Z,11.80
2019-01-26T21:09:39.046Z,17.43
2019-01-26T21:11:51.895Z,11.70
2019-01-26T21:14:02.428Z,15.43
2019-01-26T21:16:10.635Z,10.77
2019-01-26T21:18:18.602Z,13.60
2019-01-26T21:20:28.290Z,14.50
2019-01-26T21:22:37.128Z,16.30
2019-01-26T21:24:47.335Z,14.93
2019-01-26T21:26:56.255Z,15.43
2019-01-26T21:29:05.226Z,19.20
2019-01-26T21:31:13.563Z,13.57
2019-01-26T21:33:20.491Z,13.67
2019-01-26T21:35:28.870Z,16.13
2019-01-26T21:37:37.695Z,14.27
2019-01-26T21:39:50.506Z,14.13
2019-01-26T21:42:00.268Z,20.90
2019-01-26T21:44:13.339Z,18.27
2019-01-26T21:46:20.587Z,12.47
2019-01-26T21:48:27.639Z,20.23
2019-01-26T21:50:37.814Z,17.57
2019-01-26T21:52:43.375Z,14.13
2019-01-26T21:54:50.283Z,15.27
2019-01-26T21:57:00.167Z,14.17
2019-01-26T21:59:09.663Z,9.63
2019-01-26T22:01:17.422Z,16.03
2019-01-26T22:03:29.207Z,16.47
2019-01-26T22:05:45.121Z,12.07
2019-01-26T22:07:56.038Z,18.73
2019-01-26T22:10:04.555Z,14.00
2019-01-26T22:12:13.256Z,14.50
2019-01-26T22:14:22.075Z,19.50
2019-01-26T22:16:30.407Z,17.00
2019-01-26T22:18:39.219Z,14.53
2019-01-26T22:20:46.514Z,16.53
2019-01-26T22:22:55.602Z,18.17
2019-01-26T22:25:04.615Z,18.00
2019-01-26T22:27:13.514Z,17.97
2019-01-26T22:29:22.533Z,15.87
2019-01-26T22:31:31.292Z,12.77
2019-01-26T22:33:38.428Z,13.73
2019-01-26T22:35:48.316Z,16.60
2019-01-26T22:37:58.823Z,11.10
2019-01-26T22:40:05.832Z,13.50
2019-01-26T22:42:16.106Z,14.47
2019-01-26T22:44:24.728Z,11.97
2019-01-26T22:46:34.759Z,13.67
2019-01-26T22:48:43.532Z,9.00
2019-01-26T22:51:01.109Z,14.10
2019-01-26T22:53:10.566Z,15.20
2019-01-26T22:55:23.720Z,15.27
2019-01-26T22:57:32.032Z,17.97
2019-01-26T22:59:43.227Z,17.07
2019-01-26T23:01:52.691Z,16.17
2019-01-26T23:04:23.579Z,15.00
2019-01-26T23:07:23.863Z,14.00
2019-01-26T23:10:01.102Z,18.57
2019-01-26T23:12:23.883Z,17.17
2019-01-26T23:15:30.998Z,13.30
2019-01-26T23:18:25.027Z,16.97
2019-01-26T23:21:04.306Z,13.47
2019-01-26T23:24:07.223Z,17.10
2019-01-26T23:26:50.246Z,14.13
2019-01-26T23:29:23.703Z,17.73
2019-01-26T23:31:29.410Z,16.40
2019-01-26T23:33:41.590Z,14.53
2019-01-26T23:35:50.982Z,11.40
2019-01-26T23:38:00.055Z,11.40
2019-01-26T23:40:08.263Z,12.00
2019-01-26T23:42:14.615Z,12.73
2019-01-26T23:44:22.422Z,16.37
2019-01-26T23:46:31.341Z,11.10
2019-01-26T23:48:41.913Z,9.30
2019-01-26T23:50:52.995Z,12.47
2019-01-26T23:53:04.119Z,11.07
2019-01-26T23:55:14.591Z,11.70
2019-01-26T23:57:21.279Z,13.73
2019-01-26T23:59:27.082Z,14.37
